sensor_id;sensor_type;location;lat;lon;timestamp;temperature;humidity
12959;DHT22;6544;51.666;6.634;2023-06-22T00:02:01;21.80;1.00
12959;DHT22;6544;51.666;6.634;2023-06-22T00:04:28;21.70;1.00
12959;DHT22;6544;51.666;6.634;2023-06-22T00:06:55;21.70;1.00
12959;DHT22;6544;51.666;6.634;2023-06-22T00:09:23;21.70;1.00
12959;DHT22;6544;51.666;6.634;2023-06-22T00:11:50;21.60;1.00
12959;DHT22;6544;51.666;6.634;2023-06-22T00:14:17;21.40;1.00
12959;DHT22;6544;51.666;6.634;2023-06-22T00:16:43;21.40;1.00
12959;DHT22;6544;51.666;6.634;2023-06-22T00:19:14;21.40;1.00
12959;DHT22;6544;51.666;6.634;2023-06-22T00:21:41;21.50;1.00
12959;DHT22;6544;51.666;6.634;2023-06-22T00:24:08;21.40;1.00
12959;DHT22;6544;51.666;6.634;2023-06-22T00:26:36;21.40;1.00
12959;DHT22;6544;51.666;6.634;2023-06-22T00:29:03;21.50;1.00
12959;DHT22;6544;51.666;6.634;2023-06-22T00:31:30;21.50;1.00
12959;DHT22;6544;51.666;6.634;2023-06-22T00:33:57;21.60;1.00
12959;DHT22;6544;51.666;6.634;2023-06-22T00:36:24;21.60;1.00
12959;DHT22;6544;51.666;6.634;2023-06-22T00:38:51;21.70;1.00
12959;DHT22;6544;51.666;6.634;2023-06-22T00:41:18;21.80;1.00
12959;DHT22;6544;51.666;6.634;2023-06-22T00:43:46;21.80;1.00
12959;DHT22;6544;51.666;6.634;2023-06-22T00:46:13;21.70;1.00
12959;DHT22;6544;51.666;6.634;2023-06-22T00:48:40;21.60;1.00
12959;DHT22;6544;51.666;6.634;2023-06-22T00:51:10;21.60;1.00
12959;DHT22;6544;51.666;6.634;2023-06-22T00:53:37;21.70;1.00
12959;DHT22;6544;51.666;6.634;2023-06-22T00:56:04;21.80;1.00
12959;DHT22;6544;51.666;6.634;2023-06-22T00:58:32;21.90;1.00
12959;DHT22;6544;51.666;6.634;2023-06-22T01:01:00;21.80;1.00
12959;DHT22;6544;51.666;6.634;2023-06-22T01:03:28;21.70;1.00
12959;DHT22;6544;51.666;6.634;2023-06-22T01:05:59;21.50;1.00
12959;DHT22;6544;51.666;6.634;2023-06-22T01:08:33;21.40;1.00
12959;DHT22;6544;51.666;6.634;2023-06-22T01:11:11;21.50;1.00
12959;DHT22;6544;51.666;6.634;2023-06-22T01:13:44;21.40;1.00
12959;DHT22;6544;51.666;6.634;2023-06-22T01:16:16;21.40;1.00
12959;DHT22;6544;51.666;6.634;2023-06-22T01:18:45;21.30;1.00
12959;DHT22;6544;51.666;6.634;2023-06-22T01:21:16;21.40;1.00
12959;DHT22;6544;51.666;6.634;2023-06-22T01:23:55;21.50;1.00
12959;DHT22;6544;51.666;6.634;2023-06-22T01:26:31;21.50;1.00
12959;DHT22;6544;51.666;6.634;2023-06-22T01:29:04;21.60;1.00
12959;DHT22;6544;51.666;6.634;2023-06-22T01:31:32;21.50;1.00
12959;DHT22;6544;51.666;6.634;2023-06-22T01:34:03;21.40;1.00
12959;DHT22;6544;51.666;6.634;2023-06-22T01:36:31;21.30;1.00
12959;DHT22;6544;51.666;6.634;2023-06-22T01:38:59;21.30;1.00
12959;DHT22;6544;51.666;6.634;2023-06-22T01:41:28;21.20;1.00
12959;DHT22;6544;51.666;6.634;2023-06-22T01:43:56;21.20;1.00
12959;DHT22;6544;51.666;6.634;2023-06-22T01:46:25;21.30;1.00
12959;DHT22;6544;51.666;6.634;2023-06-22T01:48:52;21.40;1.00
12959;DHT22;6544;51.666;6.634;2023-06-22T01:51:19;21.40;1.00
12959;DHT22;6544;51.666;6.634;2023-06-22T01:53:46;21.40;1.00
12959;DHT22;6544;51.666;6.634;2023-06-22T01:56:16;21.50;1.00
12959;DHT22;6544;51.666;6.634;2023-06-22T01:58:48;21.40;1.00
12959;DHT22;6544;51.666;6.634;2023-06-22T02:01:22;21.30;1.00
12959;DHT22;6544;51.666;6.634;2023-06-22T02:03:59;21.30;1.00
12959;DHT22;6544;51.666;6.634;2023-06-22T02:06:33;21.20;1.00
12959;DHT22;6544;51.666;6.634;2023-06-22T02:09:06;21.20;1.00
12959;DHT22;6544;51.666;6.634;2023-06-22T02:11:37;21.30;1.00
12959;DHT22;6544;51.666;6.634;2023-06-22T02:14:05;21.40;1.00
12959;DHT22;6544;51.666;6.634;2023-06-22T02:16:38;21.50;1.00
12959;DHT22;6544;51.666;6.634;2023-06-22T02:19:07;21.50;1.00
12959;DHT22;6544;51.666;6.634;2023-06-22T02:21:34;21.50;1.00
12959;DHT22;6544;51.666;6.634;2023-06-22T02:24:01;21.30;1.00
12959;DHT22;6544;51.666;6.634;2023-06-22T02:26:28;21.30;1.00
12959;DHT22;6544;51.666;6.634;2023-06-22T02:28:54;21.20;1.00
12959;DHT22;6544;51.666;6.634;2023-06-22T02:31:21;21.10;1.00
12959;DHT22;6544;51.666;6.634;2023-06-22T02:33:56;21.00;1.00
12959;DHT22;6544;51.666;6.634;2023-06-22T02:36:25;21.00;1.00
12959;DHT22;6544;51.666;6.634;2023-06-22T02:38:52;20.70;1.00
12959;DHT22;6544;51.666;6.634;2023-06-22T02:41:22;20.70;1.00
12959;DHT22;6544;51.666;6.634;2023-06-22T02:43:48;20.70;1.00
12959;DHT22;6544;51.666;6.634;2023-06-22T02:46:15;20.60;1.00
12959;DHT22;6544;51.666;6.634;2023-06-22T02:48:42;20.60;1.00
12959;DHT22;6544;51.666;6.634;2023-06-22T02:51:09;20.50;1.00
12959;DHT22;6544;51.666;6.634;2023-06-22T02:53:37;20.50;1.00
12959;DHT22;6544;51.666;6.634;2023-06-22T02:56:05;20.50;1.00
12959;DHT22;6544;51.666;6.634;2023-06-22T02:58:31;20.50;1.00
12959;DHT22;6544;51.666;6.634;2023-06-22T03:01:04;20.30;1.00
12959;DHT22;6544;51.666;6.634;2023-06-22T03:03:31;20.40;1.00
12959;DHT22;6544;51.666;6.634;2023-06-22T03:05:58;20.50;1.00
12959;DHT22;6544;51.666;6.634;2023-06-22T03:08:26;20.50;1.00
12959;DHT22;6544;51.666;6.634;2023-06-22T03:10:55;20.60;1.00
12959;DHT22;6544;51.666;6.634;2023-06-22T03:13:22;20.70;1.00
12959;DHT22;6544;51.666;6.634;2023-06-22T03:15:49;20.60;1.00
12959;DHT22;6544;51.666;6.634;2023-06-22T03:18:16;20.70;1.00
12959;DHT22;6544;51.666;6.634;2023-06-22T03:20:43;20.60;1.00
12959;DHT22;6544;51.666;6.634;2023-06-22T03:23:10;20.50;1.00
12959;DHT22;6544;51.666;6.634;2023-06-22T03:25:37;20.50;1.00
12959;DHT22;6544;51.666;6.634;2023-06-22T03:28:05;20.50;1.00
12959;DHT22;6544;51.666;6.634;2023-06-22T03:30:32;20.50;1.00
12959;DHT22;6544;51.666;6.634;2023-06-22T03:32:59;20.40;1.00
12959;DHT22;6544;51.666;6.634;2023-06-22T03:35:25;20.40;1.00
12959;DHT22;6544;51.666;6.634;2023-06-22T03:37:52;20.40;1.00
12959;DHT22;6544;51.666;6.634;2023-06-22T03:40:19;20.30;1.00
12959;DHT22;6544;51.666;6.634;2023-06-22T03:42:46;20.20;1.00
12959;DHT22;6544;51.666;6.634;2023-06-22T03:45:14;20.30;1.00
12959;DHT22;6544;51.666;6.634;2023-06-22T03:47:41;20.30;1.00
12959;DHT22;6544;51.666;6.634;2023-06-22T03:50:09;20.40;1.00
12959;DHT22;6544;51.666;6.634;2023-06-22T03:52:36;20.40;1.00
12959;DHT22;6544;51.666;6.634;2023-06-22T03:55:03;20.30;1.00
12959;DHT22;6544;51.666;6.634;2023-06-22T03:57:30;20.30;1.00
12959;DHT22;6544;51.666;6.634;2023-06-22T03:59:57;20.40;1.00
12959;DHT22;6544;51.666;6.634;2023-06-22T04:02:26;20.50;1.00
12959;DHT22;6544;51.666;6.634;2023-06-22T04:04:53;20.50;1.00
12959;DHT22;6544;51.666;6.634;2023-06-22T04:07:19;20.60;1.00
12959;DHT22;6544;51.666;6.634;2023-06-22T04:09:46;20.60;1.00
12959;DHT22;6544;51.666;6.634;2023-06-22T04:12:13;20.60;1.00
12959;DHT22;6544;51.666;6.634;2023-06-22T04:14:40;20.60;1.00
12959;DHT22;6544;51.666;6.634;2023-06-22T04:17:07;20.60;1.00
12959;DHT22;6544;51.666;6.634;2023-06-22T04:19:35;20.60;1.00
12959;DHT22;6544;51.666;6.634;2023-06-22T04:22:02;20.40;1.00
12959;DHT22;6544;51.666;6.634;2023-06-22T04:24:29;20.20;1.00
12959;DHT22;6544;51.666;6.634;2023-06-22T04:26:56;20.20;1.00
12959;DHT22;6544;51.666;6.634;2023-06-22T04:29:23;20.10;19.90
12959;DHT22;6544;51.666;6.634;2023-06-22T04:31:54;20.20;26.20
12959;DHT22;6544;51.666;6.634;2023-06-22T04:34:23;20.10;33.40
12959;DHT22;6544;51.666;6.634;2023-06-22T04:36:53;20.00;42.00
12959;DHT22;6544;51.666;6.634;2023-06-22T04:39:20;20.00;83.90
12959;DHT22;6544;51.666;6.634;2023-06-22T04:41:47;19.90;99.90
12959;DHT22;6544;51.666;6.634;2023-06-22T04:44:15;19.80;99.90
12959;DHT22;6544;51.666;6.634;2023-06-22T04:46:49;20.00;99.90
12959;DHT22;6544;51.666;6.634;2023-06-22T04:49:19;20.00;99.90
12959;DHT22;6544;51.666;6.634;2023-06-22T04:51:48;20.00;99.90
12959;DHT22;6544;51.666;6.634;2023-06-22T04:54:18;20.00;99.90
12959;DHT22;6544;51.666;6.634;2023-06-22T04:56:45;19.90;99.90
12959;DHT22;6544;51.666;6.634;2023-06-22T04:59:12;20.00;99.90
12959;DHT22;6544;51.666;6.634;2023-06-22T05:01:39;20.00;99.90
12959;DHT22;6544;51.666;6.634;2023-06-22T05:04:06;20.20;99.90
12959;DHT22;6544;51.666;6.634;2023-06-22T05:06:33;20.20;99.90
12959;DHT22;6544;51.666;6.634;2023-06-22T05:09:00;20.20;99.90
12959;DHT22;6544;51.666;6.634;2023-06-22T05:11:29;20.20;99.90
12959;DHT22;6544;51.666;6.634;2023-06-22T05:13:56;20.20;99.90
12959;DHT22;6544;51.666;6.634;2023-06-22T05:16:24;20.10;99.90
12959;DHT22;6544;51.666;6.634;2023-06-22T05:18:54;20.10;99.90
12959;DHT22;6544;51.666;6.634;2023-06-22T05:21:22;20.10;99.90
12959;DHT22;6544;51.666;6.634;2023-06-22T05:23:50;20.10;99.90
12959;DHT22;6544;51.666;6.634;2023-06-22T05:26:17;20.20;99.90
12959;DHT22;6544;51.666;6.634;2023-06-22T05:28:45;20.30;99.90
12959;DHT22;6544;51.666;6.634;2023-06-22T05:31:13;20.20;99.90
12959;DHT22;6544;51.666;6.634;2023-06-22T05:33:41;20.20;99.90
12959;DHT22;6544;51.666;6.634;2023-06-22T05:36:08;20.20;99.90
12959;DHT22;6544;51.666;6.634;2023-06-22T05:38:35;20.30;99.90
12959;DHT22;6544;51.666;6.634;2023-06-22T05:41:02;20.40;99.90
12959;DHT22;6544;51.666;6.634;2023-06-22T05:43:29;20.40;99.90
12959;DHT22;6544;51.666;6.634;2023-06-22T05:45:57;20.30;99.90
12959;DHT22;6544;51.666;6.634;2023-06-22T05:48:24;20.40;99.90
12959;DHT22;6544;51.666;6.634;2023-06-22T05:50:52;20.30;99.90
12959;DHT22;6544;51.666;6.634;2023-06-22T05:53:19;20.30;99.90
12959;DHT22;6544;51.666;6.634;2023-06-22T05:55:46;20.40;99.90
12959;DHT22;6544;51.666;6.634;2023-06-22T05:58:13;20.40;99.90
12959;DHT22;6544;51.666;6.634;2023-06-22T06:00:40;20.40;99.90
12959;DHT22;6544;51.666;6.634;2023-06-22T06:03:10;20.40;99.90
12959;DHT22;6544;51.666;6.634;2023-06-22T06:05:38;20.30;99.90
12959;DHT22;6544;51.666;6.634;2023-06-22T06:08:06;20.30;99.90
12959;DHT22;6544;51.666;6.634;2023-06-22T06:10:33;20.50;99.90
12959;DHT22;6544;51.666;6.634;2023-06-22T06:13:00;20.60;93.00
12959;DHT22;6544;51.666;6.634;2023-06-22T06:15:30;20.70;47.60
12959;DHT22;6544;51.666;6.634;2023-06-22T06:17:57;20.70;26.60
12959;DHT22;6544;51.666;6.634;2023-06-22T06:20:26;20.80;8.00
12959;DHT22;6544;51.666;6.634;2023-06-22T06:22:54;20.80;1.00
12959;DHT22;6544;51.666;6.634;2023-06-22T06:25:21;20.90;1.00
12959;DHT22;6544;51.666;6.634;2023-06-22T06:27:49;21.00;1.00
12959;DHT22;6544;51.666;6.634;2023-06-22T06:30:18;21.10;1.00
12959;DHT22;6544;51.666;6.634;2023-06-22T06:32:45;21.30;1.00
12959;DHT22;6544;51.666;6.634;2023-06-22T06:35:13;21.40;1.00
12959;DHT22;6544;51.666;6.634;2023-06-22T06:37:43;21.50;1.00
12959;DHT22;6544;51.666;6.634;2023-06-22T06:40:11;21.50;1.00
12959;DHT22;6544;51.666;6.634;2023-06-22T06:42:40;21.50;1.00
12959;DHT22;6544;51.666;6.634;2023-06-22T06:45:08;21.60;1.00
12959;DHT22;6544;51.666;6.634;2023-06-22T06:47:35;21.70;1.00
12959;DHT22;6544;51.666;6.634;2023-06-22T06:50:02;21.70;1.00
12959;DHT22;6544;51.666;6.634;2023-06-22T06:52:29;21.70;1.00
12959;DHT22;6544;51.666;6.634;2023-06-22T06:54:57;21.70;1.00
12959;DHT22;6544;51.666;6.634;2023-06-22T06:57:25;21.60;1.00
12959;DHT22;6544;51.666;6.634;2023-06-22T06:59:54;21.50;1.00
12959;DHT22;6544;51.666;6.634;2023-06-22T07:02:21;21.60;1.00
12959;DHT22;6544;51.666;6.634;2023-06-22T07:04:48;21.60;1.00
12959;DHT22;6544;51.666;6.634;2023-06-22T07:07:16;21.70;1.00
12959;DHT22;6544;51.666;6.634;2023-06-22T07:09:43;21.70;1.00
12959;DHT22;6544;51.666;6.634;2023-06-22T07:12:11;21.80;1.00
12959;DHT22;6544;51.666;6.634;2023-06-22T07:14:38;21.80;1.00
12959;DHT22;6544;51.666;6.634;2023-06-22T07:17:05;21.90;1.00
12959;DHT22;6544;51.666;6.634;2023-06-22T07:19:33;21.80;1.00
12959;DHT22;6544;51.666;6.634;2023-06-22T07:22:00;21.80;1.00
12959;DHT22;6544;51.666;6.634;2023-06-22T07:24:27;21.70;1.00
12959;DHT22;6544;51.666;6.634;2023-06-22T07:26:54;21.70;1.00
12959;DHT22;6544;51.666;6.634;2023-06-22T07:29:24;21.70;1.00
12959;DHT22;6544;51.666;6.634;2023-06-22T07:31:52;21.80;1.00
12959;DHT22;6544;51.666;6.634;2023-06-22T07:34:21;21.80;1.00
12959;DHT22;6544;51.666;6.634;2023-06-22T07:36:48;21.90;1.00
12959;DHT22;6544;51.666;6.634;2023-06-22T07:39:15;21.90;1.00
12959;DHT22;6544;51.666;6.634;2023-06-22T07:41:42;21.70;1.00
12959;DHT22;6544;51.666;6.634;2023-06-22T07:44:09;21.70;1.00
12959;DHT22;6544;51.666;6.634;2023-06-22T07:46:37;21.70;1.00
12959;DHT22;6544;51.666;6.634;2023-06-22T07:49:04;21.70;1.00
12959;DHT22;6544;51.666;6.634;2023-06-22T07:51:33;21.70;1.00
12959;DHT22;6544;51.666;6.634;2023-06-22T07:54:00;21.70;1.00
12959;DHT22;6544;51.666;6.634;2023-06-22T07:56:27;21.70;1.00
12959;DHT22;6544;51.666;6.634;2023-06-22T07:58:54;21.60;1.00
12959;DHT22;6544;51.666;6.634;2023-06-22T08:01:23;21.50;1.00
12959;DHT22;6544;51.666;6.634;2023-06-22T08:03:52;21.50;1.00
12959;DHT22;6544;51.666;6.634;2023-06-22T08:06:19;21.60;1.00
12959;DHT22;6544;51.666;6.634;2023-06-22T08:08:46;21.70;1.00
12959;DHT22;6544;51.666;6.634;2023-06-22T08:11:14;21.70;1.00
12959;DHT22;6544;51.666;6.634;2023-06-22T08:13:41;21.70;1.00
12959;DHT22;6544;51.666;6.634;2023-06-22T08:16:08;21.70;1.00
12959;DHT22;6544;51.666;6.634;2023-06-22T08:18:35;21.80;1.00
12959;DHT22;6544;51.666;6.634;2023-06-22T08:21:03;21.70;1.00
12959;DHT22;6544;51.666;6.634;2023-06-22T08:23:30;21.80;1.00
12959;DHT22;6544;51.666;6.634;2023-06-22T08:25:56;22.00;1.00
12959;DHT22;6544;51.666;6.634;2023-06-22T08:28:23;22.10;1.00
12959;DHT22;6544;51.666;6.634;2023-06-22T08:30:50;22.20;1.00
12959;DHT22;6544;51.666;6.634;2023-06-22T08:33:17;22.20;1.00
12959;DHT22;6544;51.666;6.634;2023-06-22T08:35:44;22.10;1.00
12959;DHT22;6544;51.666;6.634;2023-06-22T08:38:13;22.20;1.00
12959;DHT22;6544;51.666;6.634;2023-06-22T08:40:41;22.20;1.00
12959;DHT22;6544;51.666;6.634;2023-06-22T08:43:08;22.20;1.00
12959;DHT22;6544;51.666;6.634;2023-06-22T08:45:35;22.20;1.00
12959;DHT22;6544;51.666;6.634;2023-06-22T08:48:05;22.30;1.00
12959;DHT22;6544;51.666;6.634;2023-06-22T08:50:32;22.40;1.00
12959;DHT22;6544;51.666;6.634;2023-06-22T08:52:58;22.40;1.00
12959;DHT22;6544;51.666;6.634;2023-06-22T08:55:27;22.50;1.00
12959;DHT22;6544;51.666;6.634;2023-06-22T08:57:54;22.60;1.00
12959;DHT22;6544;51.666;6.634;2023-06-22T09:00:21;22.70;1.00
12959;DHT22;6544;51.666;6.634;2023-06-22T09:02:48;22.70;1.00
12959;DHT22;6544;51.666;6.634;2023-06-22T09:05:15;22.80;1.00
12959;DHT22;6544;51.666;6.634;2023-06-22T09:07:42;22.80;1.00
12959;DHT22;6544;51.666;6.634;2023-06-22T09:10:10;22.90;1.00
12959;DHT22;6544;51.666;6.634;2023-06-22T09:12:39;22.90;1.00
12959;DHT22;6544;51.666;6.634;2023-06-22T09:15:07;23.00;1.00
12959;DHT22;6544;51.666;6.634;2023-06-22T09:17:34;23.00;1.00
12959;DHT22;6544;51.666;6.634;2023-06-22T09:20:02;23.00;1.00
12959;DHT22;6544;51.666;6.634;2023-06-22T09:22:31;22.90;1.00
12959;DHT22;6544;51.666;6.634;2023-06-22T09:24:58;22.90;1.00
12959;DHT22;6544;51.666;6.634;2023-06-22T09:27:26;22.90;1.00
12959;DHT22;6544;51.666;6.634;2023-06-22T09:29:54;22.90;1.00
12959;DHT22;6544;51.666;6.634;2023-06-22T09:32:23;22.90;1.00
12959;DHT22;6544;51.666;6.634;2023-06-22T09:34:50;23.00;1.00
12959;DHT22;6544;51.666;6.634;2023-06-22T09:37:18;23.10;1.00
12959;DHT22;6544;51.666;6.634;2023-06-22T09:39:45;23.00;1.00
12959;DHT22;6544;51.666;6.634;2023-06-22T09:42:12;23.00;1.00
12959;DHT22;6544;51.666;6.634;2023-06-22T09:44:39;23.00;1.00
12959;DHT22;6544;51.666;6.634;2023-06-22T09:47:08;23.10;1.00
12959;DHT22;6544;51.666;6.634;2023-06-22T09:49:35;23.20;1.00
12959;DHT22;6544;51.666;6.634;2023-06-22T09:52:02;23.20;1.00
12959;DHT22;6544;51.666;6.634;2023-06-22T09:54:29;23.20;1.00
12959;DHT22;6544;51.666;6.634;2023-06-22T09:56:55;23.20;1.00
12959;DHT22;6544;51.666;6.634;2023-06-22T09:59:22;23.30;1.00
12959;DHT22;6544;51.666;6.634;2023-06-22T10:01:49;23.30;1.00
12959;DHT22;6544;51.666;6.634;2023-06-22T10:04:18;23.30;1.00
12959;DHT22;6544;51.666;6.634;2023-06-22T10:06:44;23.30;1.00
12959;DHT22;6544;51.666;6.634;2023-06-22T10:09:11;23.40;1.00
12959;DHT22;6544;51.666;6.634;2023-06-22T10:11:38;23.50;1.00
12959;DHT22;6544;51.666;6.634;2023-06-22T10:14:05;23.50;1.00
12959;DHT22;6544;51.666;6.634;2023-06-22T10:16:32;23.50;1.00
12959;DHT22;6544;51.666;6.634;2023-06-22T10:19:01;23.50;1.00
12959;DHT22;6544;51.666;6.634;2023-06-22T10:21:29;23.60;1.00
12959;DHT22;6544;51.666;6.634;2023-06-22T10:23:57;23.60;1.00
12959;DHT22;6544;51.666;6.634;2023-06-22T10:26:24;23.60;1.00
12959;DHT22;6544;51.666;6.634;2023-06-22T10:28:54;23.60;1.00
12959;DHT22;6544;51.666;6.634;2023-06-22T10:31:21;23.60;1.00
12959;DHT22;6544;51.666;6.634;2023-06-22T10:33:48;23.50;1.00
12959;DHT22;6544;51.666;6.634;2023-06-22T10:36:16;23.50;1.00
12959;DHT22;6544;51.666;6.634;2023-06-22T10:38:44;23.50;1.00
12959;DHT22;6544;51.666;6.634;2023-06-22T10:41:11;23.50;1.00
12959;DHT22;6544;51.666;6.634;2023-06-22T10:43:37;23.40;1.00
12959;DHT22;6544;51.666;6.634;2023-06-22T10:46:04;23.40;1.00
12959;DHT22;6544;51.666;6.634;2023-06-22T10:48:31;23.40;1.00
12959;DHT22;6544;51.666;6.634;2023-06-22T10:50:58;23.40;1.00
12959;DHT22;6544;51.666;6.634;2023-06-22T10:53:25;23.40;1.00
12959;DHT22;6544;51.666;6.634;2023-06-22T10:55:53;23.40;1.00
12959;DHT22;6544;51.666;6.634;2023-06-22T10:58:20;23.50;1.00
12959;DHT22;6544;51.666;6.634;2023-06-22T11:00:47;23.40;1.00
12959;DHT22;6544;51.666;6.634;2023-06-22T11:03:14;23.50;1.00
12959;DHT22;6544;51.666;6.634;2023-06-22T11:05:41;23.50;1.00
12959;DHT22;6544;51.666;6.634;2023-06-22T11:08:08;23.40;1.00
12959;DHT22;6544;51.666;6.634;2023-06-22T11:10:35;23.50;1.00
12959;DHT22;6544;51.666;6.634;2023-06-22T11:13:03;23.50;1.00
12959;DHT22;6544;51.666;6.634;2023-06-22T11:15:31;23.50;1.00
12959;DHT22;6544;51.666;6.634;2023-06-22T11:17:58;23.50;1.00
12959;DHT22;6544;51.666;6.634;2023-06-22T11:20:25;23.50;1.00
12959;DHT22;6544;51.666;6.634;2023-06-22T11:22:52;23.50;1.00
12959;DHT22;6544;51.666;6.634;2023-06-22T11:25:18;23.60;1.00
12959;DHT22;6544;51.666;6.634;2023-06-22T11:27:45;23.60;1.00
12959;DHT22;6544;51.666;6.634;2023-06-22T11:30:14;23.60;1.00
12959;DHT22;6544;51.666;6.634;2023-06-22T11:32:42;23.70;1.00
12959;DHT22;6544;51.666;6.634;2023-06-22T11:35:08;23.70;1.00
12959;DHT22;6544;51.666;6.634;2023-06-22T11:37:35;23.70;1.00
12959;DHT22;6544;51.666;6.634;2023-06-22T11:40:03;23.70;1.00
12959;DHT22;6544;51.666;6.634;2023-06-22T11:42:33;23.70;1.00
12959;DHT22;6544;51.666;6.634;2023-06-22T11:45:01;23.70;1.00
12959;DHT22;6544;51.666;6.634;2023-06-22T11:47:31;23.80;1.00
12959;DHT22;6544;51.666;6.634;2023-06-22T11:49:58;23.80;1.00
12959;DHT22;6544;51.666;6.634;2023-06-22T11:52:25;23.80;1.00
12959;DHT22;6544;51.666;6.634;2023-06-22T11:54:53;23.80;1.00
12959;DHT22;6544;51.666;6.634;2023-06-22T11:57:20;23.80;1.00
12959;DHT22;6544;51.666;6.634;2023-06-22T11:59:46;23.90;1.00
12959;DHT22;6544;51.666;6.634;2023-06-22T12:02:13;23.90;1.00
12959;DHT22;6544;51.666;6.634;2023-06-22T12:04:42;23.90;1.00
12959;DHT22;6544;51.666;6.634;2023-06-22T12:07:09;23.90;1.00
12959;DHT22;6544;51.666;6.634;2023-06-22T12:09:36;23.80;1.00
12959;DHT22;6544;51.666;6.634;2023-06-22T12:12:04;23.90;1.00
12959;DHT22;6544;51.666;6.634;2023-06-22T12:14:31;23.90;1.00
12959;DHT22;6544;51.666;6.634;2023-06-22T12:16:58;23.80;1.00
12959;DHT22;6544;51.666;6.634;2023-06-22T12:19:25;23.60;99.90
12959;DHT22;6544;51.666;6.634;2023-06-22T12:21:53;23.20;99.90
12959;DHT22;6544;51.666;6.634;2023-06-22T12:24:20;23.00;99.90
12959;DHT22;6544;51.666;6.634;2023-06-22T12:26:47;22.80;1.00
12959;DHT22;6544;51.666;6.634;2023-06-22T12:29:14;22.60;1.00
12959;DHT22;6544;51.666;6.634;2023-06-22T12:31:41;22.80;1.00
12959;DHT22;6544;51.666;6.634;2023-06-22T12:34:07;22.70;1.00
12959;DHT22;6544;51.666;6.634;2023-06-22T12:36:35;22.80;18.70
12959;DHT22;6544;51.666;6.634;2023-06-22T12:39:03;22.80;1.00
12959;DHT22;6544;51.666;6.634;2023-06-22T12:41:30;22.80;1.00
12959;DHT22;6544;51.666;6.634;2023-06-22T12:43:57;22.90;1.00
12959;DHT22;6544;51.666;6.634;2023-06-22T12:46:24;22.80;1.00
12959;DHT22;6544;51.666;6.634;2023-06-22T12:48:50;22.60;99.90
12959;DHT22;6544;51.666;6.634;2023-06-22T12:51:21;22.60;1.00
12959;DHT22;6544;51.666;6.634;2023-06-22T12:53:48;22.60;99.90
12959;DHT22;6544;51.666;6.634;2023-06-22T12:56:16;22.60;1.00
12959;DHT22;6544;51.666;6.634;2023-06-22T12:58:44;22.50;99.90
12959;DHT22;6544;51.666;6.634;2023-06-22T13:01:11;22.50;1.00
12959;DHT22;6544;51.666;6.634;2023-06-22T13:03:38;22.30;1.00
12959;DHT22;6544;51.666;6.634;2023-06-22T13:06:04;22.30;1.00
12959;DHT22;6544;51.666;6.634;2023-06-22T13:08:31;22.30;99.90
12959;DHT22;6544;51.666;6.634;2023-06-22T13:10:58;22.20;68.50
12959;DHT22;6544;51.666;6.634;2023-06-22T13:13:27;22.30;99.90
12959;DHT22;6544;51.666;6.634;2023-06-22T13:15:54;22.20;99.90
12959;DHT22;6544;51.666;6.634;2023-06-22T13:18:20;22.10;1.00
12959;DHT22;6544;51.666;6.634;2023-06-22T13:20:47;22.20;89.00
12959;DHT22;6544;51.666;6.634;2023-06-22T13:23:14;22.20;1.00
12959;DHT22;6544;51.666;6.634;2023-06-22T13:25:41;22.20;99.90
12959;DHT22;6544;51.666;6.634;2023-06-22T13:28:08;22.20;1.00
12959;DHT22;6544;51.666;6.634;2023-06-22T13:30:37;22.20;1.00
12959;DHT22;6544;51.666;6.634;2023-06-22T13:33:04;22.10;99.90
12959;DHT22;6544;51.666;6.634;2023-06-22T13:35:31;22.20;99.90
12959;DHT22;6544;51.666;6.634;2023-06-22T13:37:58;22.30;1.00
12959;DHT22;6544;51.666;6.634;2023-06-22T13:40:25;22.20;1.00
12959;DHT22;6544;51.666;6.634;2023-06-22T13:42:52;22.20;1.00
12959;DHT22;6544;51.666;6.634;2023-06-22T13:45:19;22.30;99.90
12959;DHT22;6544;51.666;6.634;2023-06-22T13:47:48;22.30;89.30
12959;DHT22;6544;51.666;6.634;2023-06-22T13:50:15;22.30;36.90
12959;DHT22;6544;51.666;6.634;2023-06-22T13:52:42;22.20;1.00
12959;DHT22;6544;51.666;6.634;2023-06-22T13:55:09;22.30;1.00
12959;DHT22;6544;51.666;6.634;2023-06-22T13:57:36;22.40;1.00
12959;DHT22;6544;51.666;6.634;2023-06-22T14:00:04;22.30;1.00
12959;DHT22;6544;51.666;6.634;2023-06-22T14:02:32;22.40;1.00
12959;DHT22;6544;51.666;6.634;2023-06-22T14:05:02;22.30;1.00
12959;DHT22;6544;51.666;6.634;2023-06-22T14:07:29;22.30;1.00
12959;DHT22;6544;51.666;6.634;2023-06-22T14:09:57;22.40;1.00
12959;DHT22;6544;51.666;6.634;2023-06-22T14:12:24;22.40;1.00
12959;DHT22;6544;51.666;6.634;2023-06-22T14:14:51;22.30;1.00
12959;DHT22;6544;51.666;6.634;2023-06-22T14:17:18;22.30;1.00
12959;DHT22;6544;51.666;6.634;2023-06-22T14:19:49;22.10;1.00
12959;DHT22;6544;51.666;6.634;2023-06-22T14:22:19;22.10;1.00
12959;DHT22;6544;51.666;6.634;2023-06-22T14:24:46;22.10;1.00
12959;DHT22;6544;51.666;6.634;2023-06-22T14:27:14;22.20;1.00
12959;DHT22;6544;51.666;6.634;2023-06-22T14:29:41;22.10;1.00
12959;DHT22;6544;51.666;6.634;2023-06-22T14:32:09;22.20;1.00
12959;DHT22;6544;51.666;6.634;2023-06-22T14:34:36;22.20;1.00
12959;DHT22;6544;51.666;6.634;2023-06-22T14:37:05;22.30;1.00
12959;DHT22;6544;51.666;6.634;2023-06-22T14:39:34;22.40;1.00
12959;DHT22;6544;51.666;6.634;2023-06-22T14:42:00;22.30;1.00
12959;DHT22;6544;51.666;6.634;2023-06-22T14:44:29;22.30;1.00
12959;DHT22;6544;51.666;6.634;2023-06-22T14:46:56;22.30;1.00
12959;DHT22;6544;51.666;6.634;2023-06-22T14:49:23;22.30;1.00
12959;DHT22;6544;51.666;6.634;2023-06-22T14:51:50;22.30;1.00
12959;DHT22;6544;51.666;6.634;2023-06-22T14:54:17;22.20;1.00
12959;DHT22;6544;51.666;6.634;2023-06-22T14:56:46;22.30;1.00
12959;DHT22;6544;51.666;6.634;2023-06-22T14:59:13;22.30;1.00
12959;DHT22;6544;51.666;6.634;2023-06-22T15:01:40;22.30;1.00
12959;DHT22;6544;51.666;6.634;2023-06-22T15:04:07;22.20;1.00
12959;DHT22;6544;51.666;6.634;2023-06-22T15:06:34;22.20;99.90
12959;DHT22;6544;51.666;6.634;2023-06-22T15:09:01;22.20;1.00
12959;DHT22;6544;51.666;6.634;2023-06-22T15:11:28;22.20;1.00
12959;DHT22;6544;51.666;6.634;2023-06-22T15:13:58;22.20;99.90
12959;DHT22;6544;51.666;6.634;2023-06-22T15:16:26;22.20;1.00
12959;DHT22;6544;51.666;6.634;2023-06-22T15:18:53;22.10;1.00
12959;DHT22;6544;51.666;6.634;2023-06-22T15:21:20;22.00;1.00
12959;DHT22;6544;51.666;6.634;2023-06-22T15:23:46;22.10;1.00
12959;DHT22;6544;51.666;6.634;2023-06-22T15:26:13;22.10;1.00
12959;DHT22;6544;51.666;6.634;2023-06-22T15:28:40;22.10;1.00
12959;DHT22;6544;51.666;6.634;2023-06-22T15:31:09;22.00;1.00
12959;DHT22;6544;51.666;6.634;2023-06-22T15:33:36;22.00;1.00
12959;DHT22;6544;51.666;6.634;2023-06-22T15:36:03;22.00;1.00
12959;DHT22;6544;51.666;6.634;2023-06-22T15:38:32;21.90;1.00
12959;DHT22;6544;51.666;6.634;2023-06-22T15:40:59;21.90;1.00
12959;DHT22;6544;51.666;6.634;2023-06-22T15:43:26;21.90;1.00
12959;DHT22;6544;51.666;6.634;2023-06-22T15:45:53;21.90;1.00
12959;DHT22;6544;51.666;6.634;2023-06-22T15:48:21;21.90;1.00
12959;DHT22;6544;51.666;6.634;2023-06-22T15:50:48;21.90;1.00
12959;DHT22;6544;51.666;6.634;2023-06-22T15:53:15;21.80;1.00
12959;DHT22;6544;51.666;6.634;2023-06-22T15:55:42;21.60;1.00
12959;DHT22;6544;51.666;6.634;2023-06-22T15:58:09;21.60;99.90
12959;DHT22;6544;51.666;6.634;2023-06-22T16:00:38;21.50;67.70
12959;DHT22;6544;51.666;6.634;2023-06-22T16:03:05;21.40;99.90